• Join FlightAware (Why Join?)
  • Login
  • US Flag 
03:07AM EST


 

Airport Tracker/Info


-or-


 

Live Flight TrackerFlight Track Log ✈ N421TK ✈ 07-Jul-2013 ✈ KEYE - KCXO

Flight Track Log - Related Links

Times and Time Zones

All times are in EDT time to prevent confusion due to time zone crossing. See the N421TK flight status page for this flight to view local times or setup timezone preferences in your user account.

Time Position Orientation Groundspeed Altitude Reporting Facility
EDT Latitude Longitude Course Direction KTS MPH feet Rate Location/Type
01:16PM 39.8167 -86.3000 201° Southwest 107 123 1,300  Level Indianapolis TRACON
01:18PM 39.7833 -86.3167 201° Southwest 120 138 3,000 1,380 Climbing Indianapolis TRACON
01:19PM 39.7667 -86.3500 237° Southwest 135 155 4,200 1,140 Climbing Indianapolis TRACON
01:20PM 39.7500 -86.3833 237° Southwest 111 128 5,300 1,140 Climbing Indianapolis TRACON
01:21PM 39.7333 -86.4000 218° Southwest 108 124 6,500 540 Climbing Indianapolis TRACON
01:22PM 39.7000 -86.4500 229° Southwest 174 200 6,500 60 Level Indianapolis TRACON
01:23PM 39.6667 -86.4833 218° Southwest 192 221 6,700 60 Climbing Indianapolis TRACON
01:24PM 39.6000 -86.5000 191° South 188 216 6,700 540 Level Indianapolis TRACON
01:25PM 39.5667 -86.5000 180° South 163 188 7,800 1,020 Climbing Indianapolis TRACON
01:26PM 39.5061 -86.5186 193° South 153 176 9,100 900 Climbing Indianapolis Center
01:27PM 39.4669 -86.5281 191° South 147 169 10,100 960 Climbing Indianapolis Center
01:28PM 39.4272 -86.5389 192° South 146 168 11,100 900 Climbing Indianapolis Center
01:29PM 39.3875 -86.5489 191° South 145 167 12,000 780 Climbing Indianapolis Center
01:30PM 39.3478 -86.5583 190° South 146 168 12,800 780 Climbing Indianapolis Center
01:31PM 39.3061 -86.5694 192° South 150 173 13,700 900 Climbing Indianapolis Center
01:32PM 39.2564 -86.5828 192° South 153 176 14,700 840 Climbing Indianapolis Center
01:33PM 39.2131 -86.5931 190° South 158 182 15,500 660 Climbing Indianapolis Center
01:34PM 39.1686 -86.6050 192° South 161 185 16,100 240 Climbing Indianapolis Center
01:35PM 39.1225 -86.6225 196° South 178 205 16,100  Level Indianapolis Center
01:36PM 39.0639 -86.6603 207° Southwest 195 224 16,100  Level Indianapolis Center
01:37PM 39.0136 -86.6908 205° Southwest 198 228 16,100  Level Indianapolis Center
01:38PM 38.9669 -86.7269 211° Southwest 197 227 16,100  Level Indianapolis Center
01:39PM 38.9286 -86.7775 226° Southwest 197 227 16,100  Level Indianapolis Center
01:40PM 38.8903 -86.8244 224° Southwest 193 222 16,100  Level Indianapolis Center
01:41PM 38.8500 -86.8719 223° Southwest 196 226 16,100  Level Indianapolis Center
01:42PM 38.8108 -86.9214 225° Southwest 196 226 16,100  Level Indianapolis Center
01:43PM 38.7711 -86.9683 223° Southwest 194 223 16,100  Level Indianapolis Center
01:44PM 38.7244 -87.0261 224° Southwest 194 223 16,100  Level Indianapolis Center
01:46PM 38.6853 -87.0731 223° Southwest 193 222 16,100  Level Indianapolis Center
01:47PM 38.6464 -87.1206 224° Southwest 193 222 16,100  Level Indianapolis Center
01:48PM 38.6072 -87.1672 223° Southwest 193 222 16,100  Level Indianapolis Center
01:49PM 38.5678 -87.2139 223° Southwest 194 223 16,100  Level Indianapolis Center
01:50PM 38.5281 -87.2608 223° Southwest 194 223 16,100  Level Indianapolis Center
01:51PM 38.4889 -87.3083 224° Southwest 195 224 16,100  Level Indianapolis Center
01:52PM 38.4414 -87.3661 224° Southwest 198 228 16,100  Level Indianapolis Center
01:53PM 38.4006 -87.4128 222° Southwest 197 227 16,100  Level Indianapolis Center
01:54PM 38.3611 -87.4608 224° Southwest 197 227 16,100  Level Indianapolis Center
01:55PM 38.3203 -87.5089 223° Southwest 199 229 16,100  Level Indianapolis Center
01:56PM 38.2789 -87.5569 222° Southwest 201 231 16,100  Level Indianapolis Center
01:57PM 38.2389 -87.6072 225° Southwest 203 234 16,100  Level Indianapolis Center
01:58PM 38.1969 -87.6553 222° Southwest 203 234 16,100  Level Indianapolis Center
01:59PM 38.1472 -87.7158 224° Southwest 204 235 16,100  Level Indianapolis Center
02:00PM 38.1061 -87.7639 223° Southwest 202 232 16,100  Level Indianapolis Center
02:01PM 38.0647 -87.8119 222° Southwest 201 231 16,100  Level Indianapolis Center
02:02PM 38.0233 -87.8611 223° Southwest 202 232 16,100  Level Indianapolis Center
02:03PM 37.9822 -87.9089 222° Southwest 200 230 16,100  Level Indianapolis Center
02:04PM 37.9408 -87.9564 222° Southwest 200 230 16,100  Level Indianapolis Center
02:05PM 37.9003 -88.0036 223° Southwest 199 229 16,100  Level Indianapolis Center
02:06PM 37.8586 -88.0525 223° Southwest 201 231 16,100  Level Indianapolis Center
02:07PM 37.8089 -88.1125 224° Southwest 204 235 16,100  Level Indianapolis Center
02:08PM 37.7667 -88.1600 222° Southwest 204 235 16,100  Level Indianapolis Center
02:09PM 37.7233 -88.2097 222° Southwest 204 235 16,100  Level Indianapolis Center
02:10PM 37.6828 -88.2572 223° Southwest 205 236 16,100  Level Indianapolis Center
02:11PM 37.6414 -88.3061 223° Southwest 203 234 16,100  Level Indianapolis Center
02:12PM 37.5994 -88.3539 222° Southwest 203 234 16,100  Level Indianapolis Center
02:13PM 37.5581 -88.4031 223° Southwest 203 234 16,100  Level Indianapolis Center
02:14PM 37.5153 -88.4503 221° Southwest 204 235 16,100  Level Indianapolis Center
02:15PM 37.4717 -88.5025 224° Southwest 204 235 16,100  Level Indianapolis Center
02:16PM 37.4231 -88.5567 222° Southwest 203 234 16,100  Level Indianapolis Center
02:17PM 37.3814 -88.6053 223° Southwest 203 234 16,100  Level Indianapolis Center
02:18PM 37.3389 -88.6533 222° Southwest 204 235 16,100  Level Indianapolis Center
02:19PM 37.2967 -88.7025 223° Southwest 207 238 16,100  Level Indianapolis Center
02:21PM 37.2447 -88.7675 225° Southwest 212 244 16,100  Level Memphis Center
02:22PM 37.1972 -88.8181 220° Southwest 212 244 16,100  Level Memphis Center
02:23PM 37.1561 -88.8656 223° Southwest 212 244 16,100  Level Memphis Center
02:24PM 37.1131 -88.9158 223° Southwest 212 244 16,100  Level Memphis Center
02:25PM 37.0700 -88.9633 221° Southwest 212 244 16,100  Level Memphis Center
02:26PM 37.0308 -89.0108 224° Southwest 212 244 16,100  Level Memphis Center
02:27PM 36.9856 -89.0608 221° Southwest 212 244 16,100  Level Memphis Center
02:28PM 36.9444 -89.1083 223° Southwest 212 244 16,100  Level Memphis Center
02:29PM 36.9011 -89.1558 221° Southwest 212 244 16,100  Level Memphis Center
02:30PM 36.8578 -89.2031 221° Southwest 212 244 16,100  Level Memphis Center
02:31PM 36.8144 -89.2531 223° Southwest 212 244 16,100  Level Memphis Center
02:32PM 36.7711 -89.3000 221° Southwest 212 244 16,100  Level Memphis Center
02:33PM 36.7297 -89.3472 222° Southwest 212 244 16,100  Level Memphis Center
02:34PM 36.6864 -89.3944 221° Southwest 212 244 16,100  Level Memphis Center
02:35PM 36.6472 -89.4389 222° Southwest 212 244 16,100  Level Memphis Center
02:36PM 36.6036 -89.4883 222° Southwest 212 244 16,100  Level Memphis Center
02:37PM 36.5603 -89.5356 221° Southwest 212 244 16,100  Level Memphis Center
02:38PM 36.5147 -89.5850 221° Southwest 212 244 16,100  Level Memphis Center
02:39PM 36.4733 -89.6344 224° Southwest 212 244 16,100  Level Memphis Center
02:40PM 36.4297 -89.6811 221° Southwest 212 244 16,100  Level Memphis Center
02:41PM 36.3864 -89.7253 219° Southwest 212 244 16,100  Level Memphis Center
02:42PM 36.3428 -89.7719 221° Southwest 212 244 16,100  Level Memphis Center
02:43PM 36.2992 -89.8214 222° Southwest 212 244 16,100  Level Memphis Center
02:44PM 36.2597 -89.8706 225° Southwest 212 244 16,100  Level Memphis Center
02:45PM 36.2142 -89.9144 218° Southwest 212 244 16,100  Level Memphis Center
02:46PM 36.1725 -89.9583 220° Southwest 212 244 16,100  Level Memphis Center
02:47PM 36.1311 -90.0050 222° Southwest 212 244 16,100  Level Memphis Center
02:48PM 36.0872 -90.0539 222° Southwest 212 244 16,100  Level Memphis Center
02:49PM 36.0458 -90.1003 222° Southwest 212 244 16,100 -60 Level Memphis Center
02:50PM 36.0000 -90.1467 219° Southwest 212 244 16,000 -60 Descending Memphis Center
02:51PM 35.9583 -90.1928 222° Southwest 212 244 16,000  Level Memphis Center
02:52PM 35.9147 -90.2392 221° Southwest 212 244 16,000  Level Memphis Center
02:53PM 35.8708 -90.2853 220° Southwest 212 244 16,000  Level Memphis Center
02:54PM 35.8269 -90.3339 222° Southwest 212 244 16,000  Level Memphis Center
02:55PM 35.7853 -90.3800 222° Southwest 212 244 16,000  Level Memphis Center
02:56PM 35.7417 -90.4261 221° Southwest 212 244 16,000  Level Memphis Center
02:57PM 35.6978 -90.4747 222° Southwest 212 244 16,000  Level Memphis Center
02:58PM 35.6558 -90.5256 225° Southwest 204 235 16,000  Level Memphis Center
02:59PM 35.6142 -90.5717 222° Southwest 204 235 16,000  Level Memphis Center
03:00PM 35.5703 -90.6200 222° Southwest 209 241 16,000  Level Memphis Center
03:01PM 35.5286 -90.6658 222° Southwest 214 246 16,000  Level Memphis Center
03:02PM 35.4844 -90.7114 220° Southwest 209 241 16,000  Level Memphis Center
03:03PM 35.4406 -90.7572 220° Southwest 209 241 16,000  Level Memphis Center
03:04PM 35.3989 -90.8053 223° Southwest 209 241 16,000  Level Memphis Center
03:05PM 35.3528 -90.8483 217° Southwest 209 241 16,000  Level Memphis Center
03:06PM 35.3192 -90.8889 225° Southwest 209 241 16,000  Level Memphis Center
03:07PM 35.2753 -90.9344 220° Southwest 209 241 16,000  Level Memphis Center
03:08PM 35.2333 -90.9772 220° Southwest 209 241 16,000  Level Memphis Center
03:09PM 35.1933 -91.0228 223° Southwest 209 241 16,000  Level Memphis Center
03:10PM 35.1536 -91.0656 221° Southwest 209 241 16,000  Level Memphis Center
03:11PM 35.1072 -91.1108 219° Southwest 209 241 16,000  Level Memphis Center
03:12PM 35.0653 -91.1511 218° Southwest 214 246 16,000  Level Memphis Center
03:13PM 35.0150 -91.1964 216° Southwest 207 238 16,000  Level Memphis Center
03:14PM 34.9708 -91.2414 220° Southwest 207 238 16,000  Level Memphis Center
03:15PM 34.9289 -91.2842 220° Southwest 207 238 16,000  Level Memphis Center
03:16PM 34.8847 -91.3242 217° Southwest 201 231 16,000  Level Memphis Center
03:17PM 34.8386 -91.3692 219° Southwest 201 231 16,000  Level Memphis Center
03:18PM 34.7944 -91.4117 218° Southwest 201 231 16,000  Level Memphis Center
03:19PM 34.7522 -91.4517 218° Southwest 201 231 16,000  Level Memphis Center
03:20PM 34.7039 -91.4939 216° Southwest 207 238 16,000  Level Memphis Center
03:21PM 34.6597 -91.5361 218° Southwest 207 238 16,000  Level Memphis Center
03:22PM 34.6175 -91.5761 218° Southwest 197 227 16,000  Level Memphis Center
03:23PM 34.5797 -91.6133 219° Southwest 197 227 16,000  Level Memphis Center
03:24PM 34.5333 -91.6556 217° Southwest 208 239 16,000  Level Memphis Center
03:25PM 34.4869 -91.6978 217° Southwest 202 232 16,000  Level Memphis Center
03:26PM 34.4428 -91.7422 220° Southwest 202 232 16,000  Level Memphis Center
03:27PM 34.3964 -91.7817 215° Southwest 202 232 16,000  Level Memphis Center
03:28PM 34.3519 -91.8239 218° Southwest 202 232 16,000  Level Memphis Center
03:29PM 34.3078 -91.8658 218° Southwest 202 232 16,000  Level Memphis Center
03:30PM 34.2611 -91.9103 218° Southwest 202 232 16,000  Level Memphis Center
03:31PM 34.2189 -91.9497 218° Southwest 203 234 16,000  Level Memphis Center
03:32PM 34.1747 -91.9917 218° Southwest 203 234 16,000  Level Memphis Center
03:33PM 34.1281 -92.0333 216° Southwest 203 234 16,000  Level Memphis Center
03:34PM 34.0817 -92.0750 217° Southwest 203 234 16,000  Level Memphis Center
03:35PM 34.0308 -92.1242 219° Southwest 208 239 16,000  Level Memphis Center
03:36PM 33.9844 -92.1683 218° Southwest 208 239 16,000  Level Memphis Center
03:37PM 33.9442 -92.2125 222° Southwest 208 239 16,000  Level Memphis Center
03:38PM 33.8994 -92.2567 219° Southwest 208 239 16,000  Level Memphis Center
03:39PM 33.8508 -92.2956 214° Southwest 213 245 16,000  Level Memphis Center
03:40PM 33.8022 -92.3369 215° Southwest 213 245 16,000  Level Memphis Center
03:41PM 33.7578 -92.3811 220° Southwest 213 245 16,000  Level Memphis Center
03:43PM 33.6525 -92.4731 216° Southwest 218 251 16,000  Level Fort Worth Center
03:44PM 33.6064 -92.5181 219° Southwest 218 251 16,000  Level Fort Worth Center
03:45PM 33.5619 -92.5603 218° Southwest 218 251 16,000  Level Fort Worth Center
03:46PM 33.5156 -92.6028 217° Southwest 218 251 16,000  Level Fort Worth Center
03:47PM 33.4692 -92.6425 216° Southwest 218 251 16,000  Level Fort Worth Center
03:48PM 33.4228 -92.6850 217° Southwest 218 251 16,000  Level Fort Worth Center
03:49PM 33.3764 -92.7247 216° Southwest 218 251 16,000  Level Fort Worth Center
03:50PM 33.3319 -92.7694 220° Southwest 218 251 16,000  Level Fort Worth Center
03:51PM 33.2856 -92.8089 215° Southwest 218 251 16,000  Level Fort Worth Center
03:52PM 33.2392 -92.8511 217° Southwest 218 251 16,000  Level Fort Worth Center
03:53PM 33.1925 -92.8933 217° Southwest 213 245 16,000  Level Fort Worth Center
03:54PM 33.1481 -92.9328 217° Southwest 213 245 16,000  Level Fort Worth Center
03:55PM 33.0975 -92.9775 217° Southwest 218 251 16,000  Level Fort Worth Center
03:56PM 33.0531 -93.0167 216° Southwest 213 245 16,000  Level Fort Worth Center
03:57PM 33.0083 -93.0561 216° Southwest 218 251 16,000  Level Fort Worth Center
03:58PM 32.9619 -93.0981 217° Southwest 212 244 16,000  Level Fort Worth Center
03:59PM 32.9133 -93.1400 216° Southwest 217 250 16,000  Level Fort Worth Center
04:00PM 32.8686 -93.1817 218° Southwest 217 250 16,000  Level Fort Worth Center
04:01PM 32.8200 -93.2236 216° Southwest 217 250 16,000  Level Fort Worth Center
04:02PM 32.7733 -93.2653 217° Southwest 217 250 16,000  Level Fort Worth Center
04:03PM 32.7247 -93.3069 216° Southwest 217 250 16,000  Level Fort Worth Center
04:04PM 32.6803 -93.3511 220° Southwest 217 250 16,000  Level Fort Worth Center
04:05PM 32.6314 -93.3903 214° Southwest 217 250 16,000  Level Fort Worth Center
04:06PM 32.5847 -93.4342 218° Southwest 217 250 16,000  Level Fort Worth Center
04:07PM 32.5381 -93.4756 217° Southwest 217 250 16,000  Level Fort Worth Center
04:08PM 32.4892 -93.5172 216° Southwest 217 250 16,000  Level Fort Worth Center
04:09PM 32.4425 -93.5586 217° Southwest 217 250 16,000  Level Fort Worth Center
04:10PM 32.3936 -93.6025 217° Southwest 217 250 16,000  Level Fort Worth Center
04:11PM 32.3531 -93.6386 217° Southwest 217 250 16,000  Level Fort Worth Center
04:13PM 32.2567 -93.7314 219° Southwest 212 244 16,000  Level Houston Center
04:14PM 32.2083 -93.7736 216° Southwest 214 246 16,000  Level Houston Center
04:15PM 32.1633 -93.8144 218° Southwest 207 238 16,000  Level Houston Center
04:16PM 32.1153 -93.8594 218° Southwest 217 250 16,000  Level Fort Worth Center
04:17PM 32.0706 -93.9028 219° Southwest 217 250 16,000  Level Fort Worth Center
04:18PM 32.0217 -93.9439 215° Southwest 217 250 16,000  Level Fort Worth Center
04:19PM 31.9767 -93.9847 218° Southwest 217 250 16,000 -60 Level Fort Worth Center
04:20PM 31.9319 -94.0256 218° Southwest 217 250 15,900 -480 Descending Fort Worth Center
04:21PM 31.8831 -94.0714 219° Southwest 217 250 15,100 -780 Descending Fort Worth Center
04:22PM 31.8322 -94.1197 219° Southwest 223 257 14,400 -780 Descending Fort Worth Center
04:23PM 31.7831 -94.1606 215° Southwest 223 257 13,600 -900 Descending Fort Worth Center
04:24PM 31.7342 -94.2064 219° Southwest 223 257 12,700 -900 Descending Fort Worth Center
04:25PM 31.6667 -94.2644 216° Southwest 217 250 11,500 -900 Descending Houston Center
04:26PM 31.6178 -94.3089 218° Southwest 221 254 10,500 -960 Descending Houston Center
04:27PM 31.5697 -94.3525 218° Southwest 219 252 9,600 -840 Descending Houston Center
04:29PM 31.5219 -94.3931 216° Southwest 213 245 8,800 -720 Descending Houston Center
04:30PM 31.4747 -94.4356 218° Southwest 213 245 8,100 -360 Descending Houston Center
04:31PM 31.4211 -94.4817 216° Southwest 199 229 8,100 -300 Level Houston Center
04:32PM 31.3781 -94.5206 218° Southwest 194 223 7,500 -720 Descending Houston Center
04:33PM 31.3314 -94.5633 218° Southwest 208 239 6,700 -720 Descending Houston Center
04:34PM 31.2842 -94.6039 216° Southwest 211 243 6,100 -300 Descending Houston Center
04:35PM 31.2419 -94.6411 217° Southwest 196 226 6,100  Level Houston Center
04:36PM 31.2033 -94.6739 216° Southwest 176 203 6,100  Level Houston Center
04:37PM 31.1647 -94.7094 218° Southwest 172 198 6,100 -240 Level Houston Center
04:38PM 31.1239 -94.7456 217° Southwest 181 208 5,700 -660 Descending Houston Center
04:39PM 31.0786 -94.7861 217° Southwest 201 231 4,800 -780 Descending Houston Center
04:40PM 31.0269 -94.8328 218° Southwest 196 226 4,100 -360 Descending Houston Center
04:41PM 30.9867 -94.8675 216° Southwest 185 213 4,100  Level Houston Center
04:42PM 30.9483 -94.9014 217° Southwest 175 201 4,100  Level Houston Center
04:43PM 30.9106 -94.9344 217° Southwest 171 197 4,100 -60 Level Houston Center
04:44PM 30.8639 -94.9731 215° Southwest 170 196 4,000  Descending Houston Center
04:45PM 30.8344 -95.0014 220° Southwest 171 197 4,100  Climbing Houston Center
04:46PM 30.7964 -95.0350 217° Southwest 170 196 4,000 -60 Descending Houston Center
04:47PM 30.7714 -95.0819 238° Southwest 178 205 4,000  Level Houston Center
04:48PM 30.7486 -95.1311 242° Southwest 175 201 4,000  Level Houston Center
04:49PM 30.7194 -95.1925 241° Southwest 176 203 4,000 -480 Level Houston Center
04:50PM 30.6975 -95.2394 241° Southwest 191 220 3,100 -480 Descending Houston Center
04:51PM 30.6714 -95.3000 243° Southwest 185 213 3,100 -60 Level Houston Center
04:52PM 30.6525 -95.3422 243° Southwest 170 196 3,000 -60 Descending Houston Center
04:53PM 30.6294 -95.3911 241° Southwest 168 193 3,000  Level Houston Center
04:54PM 30.6047 -95.4425 241° Southwest 173 199 3,000  Level Houston Center
04:55PM 30.5797 -95.4917 239° Southwest 175 201 3,000  Level Houston Center
04:56PM 30.5567 -95.5381 240° Southwest 155 178 3,000 -420 Level Houston Center
04:57PM 30.5169 -95.5381 180° South 131 151 2,200 -540 Descending Houston Center
04:58PM 30.4922 -95.5217 150° Southeast 122 140 2,000 -60 Descending Houston Center
04:59PM 30.4628 -95.4983 146° Southeast 105 121 2,100  Climbing Houston Center
05:00PM 30.4425 -95.4814 144° Southeast 104 120 2,100 -180 Level Houston Center
05:01PM 30.4178 -95.4628 147° Southeast 99 114 1,800 -600 Descending Houston Center
05:02PM 30.3908 -95.4442 149° Southeast 119 137 1,000 -660 Descending Houston Center
05:03PM 30.3681 -95.4250 144° Southeast 97 112 500 -480 Descending Houston Center